createdAt,value
2018-09-18T00:01:02.859Z,40.57
2018-09-18T00:06:06.457Z,40.71
2018-09-18T00:11:09.900Z,40.31
2018-09-18T00:16:13.327Z,40.47
2018-09-18T00:21:16.839Z,40.80
2018-09-18T00:26:20.329Z,40.48
2018-09-18T00:31:23.793Z,40.52
2018-09-18T00:36:27.277Z,40.64
2018-09-18T00:41:30.730Z,40.49
2018-09-18T00:46:34.186Z,40.90
2018-09-18T00:51:37.639Z,40.44
2018-09-18T00:56:41.112Z,40.75
2018-09-18T01:01:44.562Z,40.76
2018-09-18T01:06:48.014Z,40.71
2018-09-18T01:11:51.459Z,40.66
2018-09-18T01:16:54.936Z,41.00
2018-09-18T01:21:58.412Z,40.65
2018-09-18T01:27:01.850Z,40.64
2018-09-18T01:32:05.588Z,40.57
2018-09-18T01:37:09.092Z,40.69
2018-09-18T01:42:12.562Z,41.02
2018-09-18T01:47:16.019Z,40.65
2018-09-18T01:52:19.514Z,40.80
2018-09-18T01:57:23.055Z,40.68
2018-09-18T02:02:26.580Z,40.95
2018-09-18T02:07:30.033Z,41.15
2018-09-18T02:12:33.533Z,40.74
2018-09-18T02:17:37.149Z,40.71
2018-09-18T02:22:40.600Z,40.70
2018-09-18T02:27:44.104Z,41.04
2018-09-18T02:32:47.577Z,40.79
2018-09-18T02:37:51.043Z,41.18
2018-09-18T02:42:54.532Z,40.72
2018-09-18T02:47:57.988Z,41.19
2018-09-18T02:53:01.439Z,41.26
2018-09-18T02:58:04.879Z,41.07
2018-09-18T03:03:08.342Z,41.11
2018-09-18T03:08:11.833Z,40.86
2018-09-18T03:13:15.273Z,40.88
2018-09-18T03:18:18.742Z,41.23
2018-09-18T03:23:22.216Z,41.27
2018-09-18T03:28:25.716Z,41.25
2018-09-18T03:33:29.158Z,41.19
2018-09-18T03:38:32.605Z,41.19
2018-09-18T03:43:36.043Z,41.38
2018-09-18T03:48:39.511Z,41.47
2018-09-18T03:53:42.970Z,41.53
2018-09-18T03:58:46.442Z,41.68
2018-09-18T04:03:49.899Z,41.62
2018-09-18T04:08:53.365Z,41.45
2018-09-18T04:13:56.821Z,41.86
2018-09-18T04:19:00.315Z,41.37
2018-09-18T04:24:04.561Z,41.05
2018-09-18T04:29:08.891Z,41.27
2018-09-18T04:34:12.377Z,41.33
2018-09-18T04:39:15.841Z,41.73
2018-09-18T04:44:19.283Z,41.87
2018-09-18T04:49:22.755Z,41.82
2018-09-18T04:54:26.218Z,41.67
2018-09-18T05:04:32.218Z,41.40
2018-09-18T05:09:35.706Z,41.81
2018-09-18T05:14:39.179Z,42.10
2018-09-18T05:19:42.682Z,42.04
2018-09-18T05:24:46.183Z,42.05
2018-09-18T05:29:49.680Z,42.24
2018-09-18T05:34:53.193Z,41.80
2018-09-18T05:39:56.677Z,41.92
2018-09-18T05:45:00.164Z,41.84
2018-09-18T05:50:03.917Z,41.99
2018-09-18T05:55:07.711Z,41.75
2018-09-18T06:00:11.167Z,42.42
2018-09-18T06:05:14.657Z,42.12
2018-09-18T06:10:18.104Z,42.62
2018-09-18T06:15:21.594Z,42.54
2018-09-18T06:20:25.059Z,45.16
2018-09-18T06:25:28.503Z,45.56
2018-09-18T06:30:31.944Z,46.40
2018-09-18T06:35:35.426Z,46.68
2018-09-18T06:40:38.908Z,46.76
2018-09-18T06:45:42.393Z,46.94
2018-09-18T06:50:45.877Z,47.17
2018-09-18T06:55:49.348Z,47.67
2018-09-18T07:00:52.800Z,47.89
2018-09-18T07:05:56.259Z,48.05
2018-09-18T07:10:59.710Z,48.15
2018-09-18T07:16:03.183Z,47.89
2018-09-18T07:21:06.749Z,47.77
2018-09-18T07:26:10.262Z,47.77
2018-09-18T07:31:13.701Z,48.16
2018-09-18T07:36:17.217Z,48.05
2018-09-18T07:41:20.687Z,48.36
2018-09-18T07:46:24.186Z,48.25
2018-09-18T07:51:27.648Z,48.16
2018-09-18T07:56:31.588Z,47.91
2018-09-18T08:01:35.110Z,48.08
2018-09-18T08:06:38.618Z,47.87
2018-09-18T08:11:42.142Z,47.85
2018-09-18T08:16:45.635Z,48.00
2018-09-18T08:21:49.127Z,48.32
2018-09-18T08:26:52.649Z,47.63
2018-09-18T08:31:56.185Z,48.27
2018-09-18T08:36:59.646Z,47.93
2018-09-18T08:42:03.123Z,47.35
2018-09-18T08:47:06.683Z,47.75
2018-09-18T08:52:10.317Z,47.72
2018-09-18T08:57:13.623Z,47.17
2018-09-18T09:02:17.161Z,47.71
2018-09-18T09:07:20.627Z,47.98
2018-09-18T09:12:24.172Z,47.13
2018-09-18T09:17:27.651Z,47.05
2018-09-18T09:22:31.162Z,47.59
2018-09-18T09:27:34.655Z,47.53
2018-09-18T09:32:38.116Z,47.45
2018-09-18T09:37:41.635Z,47.38
2018-09-18T09:42:45.100Z,47.82
2018-09-18T09:47:48.555Z,47.48
2018-09-18T09:52:52.051Z,47.69
2018-09-18T09:57:55.564Z,47.52
2018-09-18T10:02:59.051Z,48.23
2018-09-18T10:08:02.493Z,47.86
2018-09-18T10:13:06.072Z,47.50
2018-09-18T10:18:09.630Z,47.77
2018-09-18T10:23:13.085Z,47.89
2018-09-18T10:28:16.573Z,47.15
2018-09-18T10:33:20.080Z,45.35
2018-09-18T10:38:23.592Z,43.88
2018-09-18T10:43:27.096Z,42.84
2018-09-18T10:48:30.638Z,42.67
2018-09-18T10:53:34.128Z,43.77
2018-09-18T10:58:37.623Z,41.28
2018-09-18T11:03:41.088Z,40.54
2018-09-18T11:08:44.600Z,41.82
2018-09-18T11:13:48.189Z,41.40
2018-09-18T11:18:51.694Z,41.71
2018-09-18T11:23:55.198Z,41.50
2018-09-18T11:29:06.057Z,40.42
2018-09-18T11:34:09.533Z,39.19
2018-09-18T11:39:13.026Z,36.65
2018-09-18T11:44:16.553Z,38.36
2018-09-18T11:49:19.987Z,38.53
2018-09-18T11:54:23.519Z,39.11
2018-09-18T11:59:27.044Z,39.13
2018-09-18T12:04:30.552Z,39.60
2018-09-18T12:09:34.025Z,39.91
2018-09-18T12:14:37.467Z,40.01
2018-09-18T12:19:40.923Z,40.11
2018-09-18T12:24:44.396Z,40.46
2018-09-18T12:29:48.007Z,40.99
2018-09-18T12:34:51.457Z,41.28
2018-09-18T12:39:54.952Z,41.00
2018-09-18T12:44:58.413Z,41.31
2018-09-18T12:50:02.049Z,41.34
2018-09-18T12:55:05.584Z,41.38
2018-09-18T13:00:09.119Z,41.44
2018-09-18T13:05:12.569Z,41.85
2018-09-18T13:10:16.032Z,41.48
2018-09-18T13:15:19.508Z,41.60
2018-09-18T13:20:23.002Z,42.03
2018-09-18T13:25:26.511Z,42.07
2018-09-18T13:30:30.011Z,42.08
2018-09-18T13:35:33.486Z,42.25
2018-09-18T13:40:36.932Z,42.48
2018-09-18T13:45:40.370Z,42.29
2018-09-18T13:50:43.831Z,42.42
2018-09-18T13:55:47.289Z,42.54
2018-09-18T14:00:50.853Z,42.73
2018-09-18T14:05:54.328Z,42.97
2018-09-18T14:10:57.788Z,42.74
2018-09-18T14:16:01.247Z,42.89
2018-09-18T14:27:25.824Z,43.49
2018-09-18T14:32:29.267Z,43.36
2018-09-18T14:37:32.738Z,43.51
2018-09-18T14:54:47.516Z,43.83
2018-09-18T14:59:51.034Z,43.49
2018-09-18T15:04:54.524Z,43.51
2018-09-18T15:09:57.955Z,43.14
2018-09-18T15:15:01.484Z,43.38
2018-09-18T15:20:05.483Z,43.36
2018-09-18T15:25:09.117Z,43.18
2018-09-18T15:30:13.154Z,43.14
2018-09-18T15:35:16.640Z,43.14
2018-09-18T15:40:20.140Z,43.05
2018-09-18T15:45:23.659Z,43.49
2018-09-18T15:50:27.087Z,43.35
2018-09-18T15:55:30.611Z,43.25
2018-09-18T16:00:34.047Z,43.05
2018-09-18T16:05:37.531Z,43.09
2018-09-18T16:10:40.981Z,43.16
2018-09-18T16:15:44.536Z,43.33
2018-09-18T16:20:48.001Z,43.24
2018-09-18T16:25:51.475Z,42.99
2018-09-18T16:30:55.051Z,43.18
2018-09-18T16:35:58.473Z,42.90
2018-09-18T16:41:02.039Z,43.44
2018-09-18T16:46:05.497Z,43.30
2018-09-18T16:51:09.056Z,43.06
2018-09-18T16:56:12.509Z,42.87
2018-09-18T17:01:15.981Z,42.79
2018-09-18T17:06:19.756Z,42.95
2018-09-18T17:11:23.229Z,43.05
2018-09-18T17:16:26.759Z,43.41
2018-09-18T17:21:30.276Z,42.71
2018-09-18T17:26:33.749Z,42.88
2018-09-18T17:31:37.385Z,42.62
2018-09-18T17:36:40.863Z,42.79
2018-09-18T17:41:44.406Z,42.68
2018-09-18T17:46:47.850Z,42.66
2018-09-18T17:51:51.504Z,42.86
2018-09-18T17:56:55.138Z,42.88
2018-09-18T18:01:58.643Z,42.66
2018-09-18T18:07:02.081Z,42.48
2018-09-18T18:12:05.547Z,42.75
2018-09-18T18:17:09.117Z,42.85
2018-09-18T18:22:12.566Z,42.82
2018-09-18T18:27:17.592Z,43.65
2018-09-18T18:32:21.121Z,43.20
2018-09-18T18:37:24.582Z,43.00
2018-09-18T18:42:28.169Z,43.46
2018-09-18T18:47:31.772Z,43.14
2018-09-18T18:52:35.199Z,42.92
2018-09-18T18:57:38.853Z,43.29
2018-09-18T19:02:42.491Z,43.36
2018-09-18T19:07:45.951Z,43.35
2018-09-18T19:13:02.263Z,42.89
2018-09-18T19:18:05.769Z,42.97
2018-09-18T19:23:09.802Z,42.75
2018-09-18T19:28:13.621Z,42.85
2018-09-18T19:33:17.266Z,42.42
2018-09-18T19:38:20.602Z,42.30
2018-09-18T19:43:24.082Z,42.54
2018-09-18T19:48:27.669Z,42.61
2018-09-18T19:53:31.159Z,42.16
2018-09-18T19:58:34.648Z,42.56
2018-09-18T20:03:38.321Z,42.23
2018-09-18T20:08:41.773Z,42.18
2018-09-18T20:13:45.442Z,41.99
2018-09-18T20:18:48.896Z,42.18
2018-09-18T20:23:52.436Z,42.49
2018-09-18T20:28:55.996Z,42.10
2018-09-18T20:33:59.420Z,42.01
2018-09-18T20:39:02.929Z,42.10
2018-09-18T20:44:06.406Z,41.91
2018-09-18T20:49:09.889Z,41.99
2018-09-18T20:54:13.408Z,42.13
2018-09-18T20:59:16.909Z,42.15
2018-09-18T21:04:20.355Z,42.68
2018-09-18T21:09:24.047Z,42.67
2018-09-18T21:14:27.499Z,42.74
2018-09-18T21:19:30.963Z,42.56
2018-09-18T21:24:34.415Z,42.64
2018-09-18T21:29:37.948Z,42.63
2018-09-18T21:34:41.471Z,43.02
2018-09-18T21:39:44.945Z,42.71
2018-09-18T21:44:48.400Z,43.07
2018-09-18T21:49:51.907Z,42.87
2018-09-18T21:54:55.752Z,42.90
2018-09-18T21:59:59.248Z,42.77
2018-09-18T22:05:02.751Z,43.19
2018-09-18T22:10:06.360Z,43.17
2018-09-18T22:15:09.831Z,42.91
2018-09-18T22:20:13.356Z,43.34
2018-09-18T22:25:16.866Z,43.43
2018-09-18T22:30:20.417Z,42.92
2018-09-18T22:35:23.874Z,43.40
2018-09-18T22:40:27.330Z,43.19
2018-09-18T22:45:30.842Z,43.41
2018-09-18T22:50:34.405Z,43.59
2018-09-18T22:55:37.968Z,43.21
2018-09-18T23:00:41.444Z,43.47
2018-09-18T23:05:44.930Z,43.48
2018-09-18T23:10:48.429Z,43.30
2018-09-18T23:15:51.912Z,43.60
2018-09-18T23:20:55.360Z,43.59
2018-09-18T23:25:58.837Z,43.54
2018-09-18T23:31:02.298Z,43.95
2018-09-18T23:36:05.770Z,43.80
2018-09-18T23:41:09.252Z,43.80
2018-09-18T23:46:12.770Z,43.94
2018-09-18T23:51:16.234Z,44.24
2018-09-18T23:56:19.674Z,44.04
